Time;durP1;ratioP1;P1;durP2;ratioP2;P2;SDS_P1;SDS_P2;PMS_P1;PMS_P2;Temp;Humidity;BMP_temperature;BMP_pressure;BME280_temperature;BME280_humidity;BME280_pressure;Samples;Min_cycle;Max_cycle;Signal;HPM_P1;HPM_P2
2023/02/02 00:01:14;;;;;;;17.03;3.77;;;8.80;99.90;;;;;;4946729;29;20651;-79
2023/02/02 00:03:41;;;;;;;15.47;3.83;;;8.80;99.90;;;;;;4945851;28;20622;-79
2023/02/02 00:06:08;;;;;;;23.57;4.30;;;8.70;99.90;;;;;;4936949;29;20212;-79
2023/02/02 00:08:37;;;;;;;13.63;3.70;;;8.80;99.90;;;;;;4928002;29;20322;-80
2023/02/02 00:11:05;;;;;;;19.00;4.30;;;8.70;99.90;;;;;;4927941;29;20225;-81
2023/02/02 00:13:32;;;;;;;13.93;3.13;;;8.70;99.90;;;;;;4926733;29;20210;-82
2023/02/02 00:15:59;;;;;;;15.80;2.47;;;8.70;99.90;;;;;;4927522;29;20230;-78
2023/02/02 00:18:26;;;;;;;8.37;2.47;;;8.70;99.90;;;;;;4927111;29;20218;-78
2023/02/02 00:20:53;;;;;;;10.43;3.67;;;8.70;99.90;;;;;;4927034;29;20217;-78
2023/02/02 00:23:20;;;;;;;9.13;1.90;;;8.70;99.90;;;;;;4927790;29;20202;-80
2023/02/02 00:25:50;;;;;;;7.83;2.00;;;8.60;99.90;;;;;;4927257;29;20210;-78
2023/02/02 00:28:19;;;;;;;9.90;2.03;;;8.60;99.90;;;;;;4926992;29;20342;-79
2023/02/02 00:30:46;;;;;;;10.67;2.40;;;8.50;99.90;;;;;;4927259;29;20289;-78
2023/02/02 00:33:12;;;;;;;11.50;2.90;;;8.40;99.90;;;;;;4928149;29;20289;-79
2023/02/02 00:35:42;;;;;;;7.33;2.50;;;8.30;99.90;;;;;;4927010;29;20232;-81
2023/02/02 00:38:09;;;;;;;7.37;2.07;;;8.30;99.90;;;;;;4926830;29;20198;-79
2023/02/02 00:40:36;;;;;;;9.77;3.70;;;8.30;99.90;;;;;;4927016;29;20216;-78
2023/02/02 00:43:03;;;;;;;10.23;2.70;;;8.20;99.90;;;;;;4927091;29;20216;-80
2023/02/02 00:45:30;;;;;;;17.13;2.47;;;8.30;99.90;;;;;;4927497;29;20248;-80
2023/02/02 00:47:57;;;;;;;8.50;2.23;;;8.30;99.90;;;;;;4927087;29;20921;-79
2023/02/02 00:50:24;;;;;;;12.60;3.00;;;8.30;99.90;;;;;;4927325;29;20208;-81
2023/02/02 00:52:51;;;;;;;14.53;4.07;;;8.30;99.90;;;;;;4927766;29;20292;-79
2023/02/02 00:55:18;;;;;;;20.47;3.67;;;8.30;99.90;;;;;;4927608;29;20236;-81
2023/02/02 00:57:45;;;;;;;17.63;3.93;;;8.30;99.90;;;;;;4927640;29;20202;-79
2023/02/02 01:00:16;;;;;;;21.47;4.20;;;8.30;99.90;;;;;;4928310;29;20220;-80
2023/02/02 01:02:44;;;;;;;13.70;3.90;;;8.20;99.90;;;;;;4935858;28;20217;-79
2023/02/02 01:05:11;;;;;;;22.17;4.57;;;8.30;99.90;;;;;;4936429;29;20304;-79
2023/02/02 01:07:38;;;;;;;17.93;3.70;;;8.30;99.90;;;;;;4934132;29;20204;-78
2023/02/02 01:10:07;;;;;;;21.13;3.97;;;8.30;99.90;;;;;;4950284;28;20213;-78
2023/02/02 01:12:34;;;;;;;22.33;3.93;;;8.40;99.90;;;;;;4953166;29;20323;-81
2023/02/02 01:15:01;;;;;;;16.80;5.40;;;8.40;99.90;;;;;;4945244;29;20229;-79
2023/02/02 01:17:28;;;;;;;25.67;5.10;;;8.40;99.90;;;;;;4933128;29;20666;-80
2023/02/02 01:19:57;;;;;;;24.07;5.57;;;8.40;99.90;;;;;;4934353;29;20206;-81
2023/02/02 01:22:24;;;;;;;22.90;6.00;;;8.40;99.90;;;;;;4933944;29;20225;-80
2023/02/02 01:24:51;;;;;;;25.70;6.87;;;8.50;99.90;;;;;;4932877;29;20213;-80
2023/02/02 01:27:18;;;;;;;24.73;5.80;;;8.50;99.90;;;;;;4934099;29;20202;-83
2023/02/02 01:29:45;;;;;;;23.57;6.10;;;8.50;99.90;;;;;;4934181;29;20213;-80
2023/02/02 01:32:12;;;;;;;25.13;7.50;;;8.40;99.90;;;;;;4934010;29;20565;-81
2023/02/02 01:34:40;;;;;;;21.27;4.60;;;8.40;99.90;;;;;;4932787;29;20300;-80
2023/02/02 01:37:09;;;;;;;24.50;6.47;;;8.40;99.90;;;;;;4932764;29;20287;-79
2023/02/02 01:39:36;;;;;;;21.37;6.40;;;8.40;99.90;;;;;;4934054;29;20314;-81
2023/02/02 01:42:04;;;;;;;24.40;5.60;;;8.40;99.90;;;;;;4933398;29;20253;-81
2023/02/02 01:45:07;;;;;;;27.00;6.87;;;8.30;99.90;;;;;;4932876;29;20244;-82
2023/02/02 01:47:38;;;;;;;25.03;6.20;;;8.30;99.90;;;;;;4924318;29;20210;-81
2023/02/02 01:50:07;;;;;;;20.73;5.90;;;8.40;99.90;;;;;;4933968;29;20204;-81
2023/02/02 01:52:37;;;;;;;24.50;5.90;;;8.40;99.90;;;;;;4931829;29;20222;-79
2023/02/02 01:55:08;;;;;;;21.37;5.43;;;8.40;99.90;;;;;;4932833;29;20222;-79
2023/02/02 01:57:38;;;;;;;26.43;6.37;;;8.40;99.90;;;;;;4932244;29;20333;-81
2023/02/02 02:00:09;;;;;;;28.60;6.60;;;8.30;99.90;;;;;;4940838;28;20316;-79
2023/02/02 02:02:38;;;;;;;32.37;7.60;;;8.30;99.90;;;;;;4951195;28;20215;-82
2023/02/02 02:05:07;;;;;;;26.63;6.70;;;8.30;99.90;;;;;;4951349;28;20204;-82
2023/02/02 02:07:35;;;;;;;30.33;6.40;;;8.30;99.90;;;;;;4950521;28;20211;-80
2023/02/02 02:10:03;;;;;;;27.17;6.03;;;8.30;99.90;;;;;;4933863;29;20225;-81
2023/02/02 02:12:29;;;;;;;33.13;7.40;;;8.30;99.90;;;;;;4932531;29;20214;-82
2023/02/02 02:18:04;;;;;;;40.17;7.40;;;8.30;99.90;;;;;;4869472;29;20251;-81
2023/02/02 02:27:39;;;;;;;29.73;6.67;;;8.40;99.90;;;;;;4928380;29;20248;-81
2023/02/02 02:30:28;;;;;;;31.00;7.23;;;8.40;99.90;;;;;;4929005;29;20316;-81
2023/02/02 02:33:02;;;;;;;36.00;7.03;;;8.30;99.90;;;;;;4928612;29;20205;-81
2023/02/02 02:35:33;;;;;;;28.47;7.13;;;8.30;99.90;;;;;;4928457;29;20224;-81
2023/02/02 02:38:06;;;;;;;38.03;6.97;;;8.40;99.90;;;;;;4929472;29;20201;-82
2023/02/02 02:40:37;;;;;;;29.63;6.80;;;8.40;99.90;;;;;;4928512;29;20218;-80
2023/02/02 02:43:10;;;;;;;31.57;7.53;;;8.40;99.90;;;;;;4929936;29;20198;-82
2023/02/02 02:45:38;;;;;;;27.43;7.10;;;8.40;99.90;;;;;;4928631;28;20324;-81
2023/02/02 02:48:10;;;;;;;31.60;7.37;;;8.40;99.90;;;;;;4928851;29;20308;-84
2023/02/02 02:50:37;;;;;;;34.60;6.87;;;8.50;99.90;;;;;;4929223;29;20201;-81
2023/02/02 02:53:06;;;;;;;26.30;5.93;;;8.50;99.90;;;;;;4929233;29;20277;-82
2023/02/02 02:55:41;;;;;;;26.80;6.33;;;8.50;99.90;;;;;;4927498;29;20234;-81
2023/02/02 02:58:12;;;;;;;26.87;6.70;;;8.50;99.90;;;;;;4928806;29;20201;-82
2023/02/02 03:00:46;;;;;;;25.40;6.60;;;8.50;99.90;;;;;;4929197;29;20190;-81
2023/02/02 03:03:24;;;;;;;33.60;7.47;;;8.50;99.90;;;;;;4929382;29;20213;-80
2023/02/02 03:05:56;;;;;;;31.70;8.07;;;8.50;99.90;;;;;;4928281;29;20284;-81
2023/02/02 03:08:29;;;;;;;33.43;7.07;;;8.50;99.90;;;;;;4928439;29;20293;-80
2023/02/02 03:10:57;;;;;;;27.97;6.30;;;8.50;99.90;;;;;;4937878;29;20229;-80
2023/02/02 03:13:26;;;;;;;28.03;8.57;;;8.60;99.90;;;;;;4947354;29;20229;-80
2023/02/02 03:15:53;;;;;;;25.60;6.33;;;8.60;99.90;;;;;;4947424;29;20235;-80
2023/02/02 03:18:25;;;;;;;29.43;7.33;;;8.60;99.90;;;;;;4937010;29;20225;-80
2023/02/02 03:20:51;;;;;;;28.20;6.77;;;8.60;99.90;;;;;;4928417;29;20220;-79
2023/02/02 03:23:18;;;;;;;33.47;6.87;;;8.60;99.90;;;;;;4927670;29;20982;-80
2023/02/02 03:25:46;;;;;;;26.00;7.73;;;8.60;99.90;;;;;;4927559;29;20639;-80
2023/02/02 03:28:13;;;;;;;37.77;7.10;;;8.60;99.90;;;;;;4927916;29;20953;-80
2023/02/02 03:30:41;;;;;;;33.00;7.73;;;8.60;99.90;;;;;;4927548;29;20751;-80
2023/02/02 03:33:09;;;;;;;31.10;7.03;;;8.60;99.90;;;;;;4928054;29;20209;-81
2023/02/02 03:35:37;;;;;;;30.53;6.67;;;8.60;99.90;;;;;;4928357;29;20234;-81
2023/02/02 03:38:04;;;;;;;37.27;8.00;;;8.60;99.90;;;;;;4927461;29;20818;-81
2023/02/02 03:40:31;;;;;;;30.30;8.03;;;8.60;99.90;;;;;;4927932;29;20205;-80
2023/02/02 03:42:58;;;;;;;24.80;5.80;;;8.60;99.90;;;;;;4928246;29;20229;-80
2023/02/02 03:45:27;;;;;;;30.27;7.70;;;8.60;99.90;;;;;;4927631;29;20246;-82
2023/02/02 03:47:54;;;;;;;30.20;6.47;;;8.60;99.90;;;;;;4928544;29;20220;-81
2023/02/02 03:50:21;;;;;;;31.37;7.47;;;8.60;99.90;;;;;;4928684;29;20325;-80
2023/02/02 03:52:49;;;;;;;27.43;6.33;;;8.60;99.90;;;;;;4927548;29;20198;-81
2023/02/02 03:55:16;;;;;;;31.90;6.47;;;8.70;99.90;;;;;;4928493;29;20214;-80
2023/02/02 03:57:43;;;;;;;32.87;6.57;;;8.70;99.90;;;;;;4927214;29;20240;-80
2023/02/02 04:00:11;;;;;;;29.40;7.70;;;8.70;99.90;;;;;;4935768;29;20250;-79
2023/02/02 04:02:38;;;;;;;26.33;5.77;;;8.70;99.90;;;;;;4947265;29;20793;-80
2023/02/02 04:05:06;;;;;;;32.80;6.93;;;8.70;99.90;;;;;;4933916;29;20923;-81
2023/02/02 04:07:32;;;;;;;24.90;5.63;;;8.70;99.90;;;;;;4927291;29;20206;-79
2023/02/02 04:10:01;;;;;;;36.13;7.27;;;8.70;99.90;;;;;;4927753;29;20285;-80
2023/02/02 04:12:27;;;;;;;24.50;5.63;;;8.70;99.90;;;;;;4926568;29;20225;-79
2023/02/02 04:14:54;;;;;;;29.83;5.80;;;8.70;99.90;;;;;;4927706;29;20214;-81
2023/02/02 04:17:21;;;;;;;23.67;6.07;;;8.70;99.90;;;;;;4927028;29;20230;-80
2023/02/02 04:19:48;;;;;;;29.87;5.53;;;8.70;99.90;;;;;;4926010;29;20202;-80
2023/02/02 04:22:15;;;;;;;29.10;5.50;;;8.80;99.90;;;;;;4927225;29;20205;-80
2023/02/02 04:24:42;;;;;;;22.13;5.47;;;8.80;99.90;;;;;;4926901;29;20212;-80
2023/02/02 04:27:10;;;;;;;18.63;5.20;;;8.80;99.90;;;;;;4926493;29;20202;-79
2023/02/02 04:29:37;;;;;;;29.13;6.40;;;8.80;99.90;;;;;;4926849;29;20843;-80
2023/02/02 04:32:04;;;;;;;24.97;6.40;;;8.80;99.90;;;;;;4927199;29;20297;-80
2023/02/02 04:34:31;;;;;;;32.63;7.17;;;8.80;99.90;;;;;;4926152;29;20682;-80
2023/02/02 04:36:58;;;;;;;33.23;7.33;;;8.80;99.90;;;;;;4927590;29;20907;-82
2023/02/02 04:39:25;;;;;;;30.67;7.23;;;8.80;99.90;;;;;;4926509;29;20284;-80
2023/02/02 04:41:52;;;;;;;21.27;5.40;;;8.80;99.90;;;;;;4926202;29;20210;-80
2023/02/02 04:44:20;;;;;;;26.00;5.90;;;8.80;99.90;;;;;;4927138;29;20321;-79
2023/02/02 04:46:47;;;;;;;21.33;4.77;;;8.80;99.90;;;;;;4926080;29;20252;-79
2023/02/02 04:49:14;;;;;;;23.37;5.07;;;8.80;99.90;;;;;;4927032;29;20213;-79
2023/02/02 04:51:41;;;;;;;18.33;4.83;;;8.80;99.90;;;;;;4926495;29;20525;-80
2023/02/02 04:54:08;;;;;;;27.30;5.80;;;8.80;99.90;;;;;;4927036;29;20701;-80
2023/02/02 04:56:36;;;;;;;25.77;5.60;;;8.80;99.90;;;;;;4927265;29;20226;-82
2023/02/02 04:59:03;;;;;;;19.43;4.93;;;8.80;99.90;;;;;;4926380;29;20202;-81
2023/02/02 05:01:31;;;;;;;23.63;6.27;;;8.80;99.90;;;;;;4925903;29;20213;-83
2023/02/02 05:03:58;;;;;;;24.23;5.67;;;8.80;99.90;;;;;;4927105;29;20292;-80
2023/02/02 05:06:26;;;;;;;21.70;5.27;;;8.80;99.90;;;;;;4927282;29;20208;-80
2023/02/02 05:08:53;;;;;;;17.63;5.10;;;8.80;99.90;;;;;;4926246;29;20209;-81
2023/02/02 05:11:21;;;;;;;20.80;5.67;;;8.80;99.90;;;;;;4927214;29;20292;-79
2023/02/02 05:13:50;;;;;;;18.47;5.33;;;8.80;99.90;;;;;;4927342;29;20237;-81
2023/02/02 05:16:17;;;;;;;22.37;5.33;;;8.80;99.90;;;;;;4925998;29;20218;-80
2023/02/02 05:18:49;;;;;;;20.37;5.30;;;8.80;99.90;;;;;;4925877;29;20206;-81
2023/02/02 05:21:15;;;;;;;23.93;5.23;;;8.80;99.90;;;;;;4925423;29;20219;-81
2023/02/02 05:23:42;;;;;;;23.20;6.53;;;8.90;99.90;;;;;;4924934;29;20788;-81
2023/02/02 05:26:14;;;;;;;25.83;5.70;;;8.90;99.90;;;;;;4927340;29;20202;-81
2023/02/02 05:28:41;;;;;;;29.87;5.77;;;8.90;99.90;;;;;;4926567;29;20206;-80
2023/02/02 05:31:09;;;;;;;32.10;7.27;;;8.80;99.90;;;;;;4938071;29;20220;-80
2023/02/02 05:33:36;;;;;;;24.23;5.67;;;8.80;99.90;;;;;;4945033;29;20257;-79
2023/02/02 05:36:05;;;;;;;16.87;5.10;;;8.90;99.90;;;;;;4944698;29;20632;-79
2023/02/02 05:38:32;;;;;;;27.27;6.33;;;8.80;99.90;;;;;;4944824;28;20641;-79
2023/02/02 05:40:59;;;;;;;23.57;5.07;;;8.80;99.90;;;;;;4945775;28;20588;-80
2023/02/02 05:43:26;;;;;;;23.73;5.77;;;8.80;99.90;;;;;;4945390;29;20213;-80
2023/02/02 05:45:53;;;;;;;22.67;5.70;;;8.80;99.90;;;;;;4926500;29;20680;-79
2023/02/02 05:48:20;;;;;;;31.77;5.43;;;8.80;99.90;;;;;;4926423;29;20818;-80
2023/02/02 05:50:56;;;;;;;22.10;5.53;;;8.80;99.90;;;;;;4926798;29;20366;-81
2023/02/02 05:53:24;;;;;;;25.77;4.97;;;8.80;99.90;;;;;;4930100;29;20555;-80
2023/02/02 05:55:51;;;;;;;24.93;5.70;;;8.80;99.90;;;;;;4929776;29;20220;-80
2023/02/02 05:58:18;;;;;;;21.83;5.37;;;8.80;99.90;;;;;;4929316;29;20301;-80
2023/02/02 06:00:45;;;;;;;20.17;5.20;;;8.80;99.90;;;;;;4929512;29;20206;-79
2023/02/02 06:03:12;;;;;;;21.50;4.90;;;8.80;99.90;;;;;;4929390;29;20859;-80
2023/02/02 06:05:40;;;;;;;30.77;6.20;;;8.80;99.90;;;;;;4929403;29;20210;-80
2023/02/02 06:08:07;;;;;;;20.20;5.77;;;8.80;99.90;;;;;;4929827;29;20627;-79
2023/02/02 06:10:35;;;;;;;27.40;5.87;;;8.70;99.90;;;;;;4929375;29;20198;-80
2023/02/02 06:13:02;;;;;;;30.33;5.67;;;8.70;99.90;;;;;;4928859;29;20642;-80
2023/02/02 06:15:30;;;;;;;18.60;5.07;;;8.70;99.90;;;;;;4932980;29;20292;-81
2023/02/02 06:17:57;;;;;;;23.97;5.10;;;8.70;99.90;;;;;;4949240;29;20225;-80
2023/02/02 06:20:24;;;;;;;24.33;6.37;;;8.70;99.90;;;;;;4946510;29;20217;-81
2023/02/02 06:22:51;;;;;;;26.27;5.87;;;8.70;99.90;;;;;;4948368;29;20205;-81
2023/02/02 06:25:18;;;;;;;27.73;5.90;;;8.70;99.90;;;;;;4936812;29;20198;-81
2023/02/02 06:27:48;;;;;;;25.80;6.30;;;8.70;99.90;;;;;;4930309;29;20210;-81
2023/02/02 06:30:16;;;;;;;23.50;5.80;;;8.70;99.90;;;;;;4930427;29;20222;-80
2023/02/02 06:32:43;;;;;;;25.43;7.10;;;8.70;99.90;;;;;;4929173;29;20301;-82
2023/02/02 06:35:10;;;;;;;21.53;5.67;;;8.60;99.90;;;;;;4929342;29;20504;-81
2023/02/02 06:37:37;;;;;;;25.17;5.90;;;8.70;99.90;;;;;;4929079;29;20654;-81
2023/02/02 06:40:07;;;;;;;21.67;6.47;;;8.70;99.90;;;;;;4928870;29;20214;-82
2023/02/02 06:42:35;;;;;;;34.70;6.70;;;8.70;99.90;;;;;;4929501;29;20233;-81
2023/02/02 06:45:03;;;;;;;27.63;6.63;;;8.70;99.90;;;;;;4930250;29;20678;-82
2023/02/02 06:47:32;;;;;;;33.90;7.83;;;8.70;99.90;;;;;;4930444;29;20544;-80
2023/02/02 06:49:59;;;;;;;27.17;5.97;;;8.70;99.90;;;;;;4978539;23;20246;-81
2023/02/02 06:52:26;;;;;;;17.93;6.07;;;8.70;99.90;;;;;;4953270;28;20219;-82
2023/02/02 06:54:53;;;;;;;21.87;6.27;;;8.70;99.90;;;;;;4947585;28;20198;-82
2023/02/02 06:57:20;;;;;;;27.53;6.27;;;8.70;99.90;;;;;;4948762;29;20317;-81
2023/02/02 06:59:47;;;;;;;28.40;6.87;;;8.70;99.90;;;;;;4948592;28;20213;-80
2023/02/02 07:02:16;;;;;;;27.63;5.97;;;8.70;99.90;;;;;;4947364;28;20211;-80
2023/02/02 07:04:43;;;;;;;26.40;6.37;;;8.70;99.90;;;;;;4948338;29;20300;-80
2023/02/02 07:07:10;;;;;;;22.60;6.57;;;8.70;99.90;;;;;;4948270;28;20532;-80
2023/02/02 07:09:37;;;;;;;27.30;6.70;;;8.70;99.90;;;;;;4947585;29;20846;-81
2023/02/02 07:12:04;;;;;;;27.10;6.70;;;8.70;99.90;;;;;;4950841;28;20225;-80
2023/02/02 07:14:30;;;;;;;35.77;7.40;;;8.70;99.90;;;;;;4958039;28;20212;-80
2023/02/02 07:16:57;;;;;;;31.47;7.30;;;8.70;99.90;;;;;;4956667;28;20473;-82
2023/02/02 07:19:26;;;;;;;26.23;6.00;;;8.70;99.90;;;;;;4951495;28;20491;-80
2023/02/02 07:21:53;;;;;;;27.53;6.63;;;8.70;99.90;;;;;;4947631;28;20231;-82
2023/02/02 07:24:20;;;;;;;26.90;5.90;;;8.70;99.90;;;;;;4948939;29;20201;-81
2023/02/02 07:26:47;;;;;;;27.77;5.67;;;8.70;99.90;;;;;;4948759;29;20202;-82
2023/02/02 07:29:14;;;;;;;30.23;6.97;;;8.70;99.90;;;;;;4947178;28;20216;-80
2023/02/02 07:31:42;;;;;;;39.30;6.53;;;8.70;99.90;;;;;;4947513;28;20203;-81
2023/02/02 07:34:09;;;;;;;30.10;5.40;;;8.70;99.90;;;;;;4948234;28;20248;-83
2023/02/02 07:36:38;;;;;;;25.63;6.60;;;8.70;99.90;;;;;;4947926;28;20233;-81
2023/02/02 07:39:06;;;;;;;21.80;5.20;;;8.70;99.90;;;;;;4949017;28;20201;-79
2023/02/02 07:41:35;;;;;;;23.63;5.70;;;8.70;99.90;;;;;;4948528;28;20205;-80
2023/02/02 07:44:02;;;;;;;26.30;4.70;;;8.70;99.90;;;;;;4945191;29;20257;-81
2023/02/02 07:46:29;;;;;;;23.07;5.17;;;8.70;99.90;;;;;;4929116;29;20308;-79
2023/02/02 07:48:56;;;;;;;21.50;5.83;;;8.70;99.90;;;;;;4928613;29;20205;-81
2023/02/02 07:51:25;;;;;;;24.67;5.47;;;8.80;99.90;;;;;;4927559;29;20332;-80
2023/02/02 07:53:54;;;;;;;25.40;5.93;;;8.80;99.90;;;;;;4927876;29;20214;-79
2023/02/02 07:56:23;;;;;;;26.67;5.57;;;8.80;99.90;;;;;;4927448;29;20205;-81
2023/02/02 07:58:52;;;;;;;20.83;5.73;;;8.80;99.90;;;;;;4927729;28;20212;-80
2023/02/02 08:01:21;;;;;;;23.97;5.63;;;8.80;99.90;;;;;;4928269;29;20213;-81
2023/02/02 08:03:49;;;;;;;20.73;4.63;;;8.80;99.90;;;;;;4926852;29;20210;-78
2023/02/02 08:06:19;;;;;;;33.70;7.77;;;8.80;99.90;;;;;;4927208;29;20206;-80
2023/02/02 08:08:46;;;;;;;22.07;5.77;;;8.80;99.90;;;;;;4927120;29;20561;-81
2023/02/02 08:11:17;;;;;;;29.57;5.17;;;8.80;99.90;;;;;;4932171;28;20213;-80
2023/02/02 08:13:44;;;;;;;27.30;5.30;;;8.80;99.90;;;;;;4944404;28;20201;-79
2023/02/02 08:16:12;;;;;;;24.83;5.20;;;8.80;99.90;;;;;;4934333;29;20197;-80
2023/02/02 08:18:39;;;;;;;25.67;5.37;;;8.80;99.90;;;;;;4945334;29;20942;-80
2023/02/02 08:21:08;;;;;;;22.00;5.83;;;8.80;99.90;;;;;;4940985;28;20295;-79
2023/02/02 08:23:36;;;;;;;27.27;6.13;;;8.90;99.90;;;;;;4945610;29;20534;-81
2023/02/02 08:26:08;;;;;;;20.17;5.63;;;8.90;99.90;;;;;;4945290;28;20508;-80
2023/02/02 08:28:37;;;;;;;26.87;4.77;;;8.90;99.90;;;;;;4945304;28;20205;-78
2023/02/02 08:31:05;;;;;;;31.23;6.20;;;8.90;99.90;;;;;;4932988;29;20205;-78
2023/02/02 08:33:32;;;;;;;22.87;5.67;;;8.90;99.90;;;;;;4939147;28;20214;-80
2023/02/02 08:35:59;;;;;;;21.23;5.00;;;8.90;99.90;;;;;;4931801;29;20221;-83
2023/02/02 08:38:26;;;;;;;21.33;4.70;;;9.00;99.90;;;;;;4946929;29;20224;-80
2023/02/02 08:40:53;;;;;;;24.03;4.83;;;8.90;99.90;;;;;;4945669;29;20201;-80
2023/02/02 08:43:20;;;;;;;24.70;6.23;;;8.90;99.90;;;;;;4937506;28;20553;-78
2023/02/02 08:45:51;;;;;;;22.17;6.13;;;9.00;99.90;;;;;;4935578;29;20227;-80
2023/02/02 08:48:20;;;;;;;18.77;4.33;;;9.00;99.90;;;;;;4933361;29;20787;-79
2023/02/02 08:50:52;;;;;;;20.80;4.57;;;9.00;99.90;;;;;;4941356;29;20263;-80
2023/02/02 08:53:19;;;;;;;23.40;4.67;;;9.10;99.90;;;;;;4946083;28;20204;-79
2023/02/02 08:55:45;;;;;;;23.00;5.37;;;9.10;99.90;;;;;;4930910;29;20213;-80
2023/02/02 08:58:12;;;;;;;27.80;5.50;;;9.10;99.90;;;;;;4927685;29;20236;-80
2023/02/02 09:00:40;;;;;;;21.30;5.03;;;9.10;99.90;;;;;;4926607;29;20332;-79
2023/02/02 09:03:08;;;;;;;22.53;4.37;;;9.20;99.90;;;;;;4945944;29;20213;-80
2023/02/02 09:05:37;;;;;;;24.90;6.43;;;9.20;99.90;;;;;;4939396;28;20214;-80
2023/02/02 09:08:05;;;;;;;24.73;5.53;;;9.20;99.90;;;;;;4926752;29;20198;-78
2023/02/02 09:10:34;;;;;;;23.10;5.90;;;9.20;99.90;;;;;;4926293;29;20202;-79
2023/02/02 09:13:02;;;;;;;29.80;7.60;;;9.20;99.90;;;;;;4929074;29;20300;-79
2023/02/02 09:15:29;;;;;;;27.63;8.13;;;9.10;99.90;;;;;;4941528;28;20217;-80
2023/02/02 09:17:56;;;;;;;23.30;6.00;;;9.10;99.90;;;;;;4945479;29;20896;-78
2023/02/02 09:20:24;;;;;;;38.10;6.43;;;9.20;99.90;;;;;;4945057;29;20223;-80
2023/02/02 09:22:51;;;;;;;24.43;6.07;;;9.20;99.90;;;;;;4925683;29;20602;-79
2023/02/02 09:25:18;;;;;;;26.07;6.17;;;9.20;99.90;;;;;;4931837;29;20221;-80
2023/02/02 09:27:45;;;;;;;25.40;6.27;;;9.20;99.90;;;;;;4932370;29;20229;-78
2023/02/02 09:30:13;;;;;;;17.67;5.00;;;9.20;99.90;;;;;;4948753;29;20205;-80
2023/02/02 09:32:40;;;;;;;25.37;5.93;;;9.20;99.90;;;;;;4949520;29;20233;-79
2023/02/02 09:35:07;;;;;;;32.20;6.30;;;9.20;99.90;;;;;;4949241;28;20557;-79
2023/02/02 09:37:36;;;;;;;25.73;6.47;;;9.20;99.90;;;;;;4930283;28;20292;-78
2023/02/02 09:40:02;;;;;;;23.83;5.37;;;9.30;99.90;;;;;;4944386;29;20332;-80
2023/02/02 09:42:43;;;;;;;23.40;4.93;;;9.20;99.90;;;;;;4944785;29;20213;-79
2023/02/02 09:45:18;;;;;;;17.23;5.67;;;9.20;99.90;;;;;;4932804;29;20240;-79
2023/02/02 09:47:54;;;;;;;19.57;5.93;;;9.20;99.90;;;;;;4938170;29;20307;-79
2023/02/02 09:50:38;;;;;;;26.10;6.40;;;9.20;99.90;;;;;;4945036;28;20233;-78
2023/02/02 09:53:15;;;;;;;20.63;5.73;;;9.20;99.90;;;;;;4945993;28;20216;-78
2023/02/02 09:55:47;;;;;;;26.77;5.53;;;9.30;99.90;;;;;;4951928;23;20233;-79
2023/02/02 09:58:19;;;;;;;28.97;6.40;;;9.30;99.90;;;;;;4945116;29;20235;-80
2023/02/02 10:00:53;;;;;;;24.03;6.20;;;9.20;99.90;;;;;;4945581;29;20199;-80
2023/02/02 10:03:24;;;;;;;20.93;6.17;;;9.20;99.90;;;;;;4947056;29;20189;-79
2023/02/02 10:05:56;;;;;;;25.43;6.20;;;9.30;99.90;;;;;;4946279;29;20213;-78
2023/02/02 10:08:33;;;;;;;17.73;4.90;;;9.30;99.90;;;;;;4947517;29;20206;-78
2023/02/02 10:11:01;;;;;;;32.70;6.67;;;9.40;99.90;;;;;;4944847;29;20208;-78
2023/02/02 10:13:33;;;;;;;22.93;5.47;;;9.40;99.90;;;;;;4929531;29;20313;-79
2023/02/02 10:16:07;;;;;;;27.50;5.80;;;9.50;99.90;;;;;;4943020;29;20194;-80
2023/02/02 10:18:43;;;;;;;18.00;4.67;;;9.50;99.90;;;;;;4946825;29;20236;-80
2023/02/02 10:21:14;;;;;;;24.67;5.40;;;9.50;99.90;;;;;;4944987;28;20197;-81
2023/02/02 10:23:44;;;;;;;28.97;6.10;;;9.60;99.90;;;;;;4946689;29;20209;-80
2023/02/02 10:26:18;;;;;;;14.97;4.60;;;9.60;99.90;;;;;;4940644;29;20218;-79
2023/02/02 10:29:00;;;;;;;22.80;6.63;;;9.60;99.90;;;;;;4944835;29;20202;-79
2023/02/02 10:31:40;;;;;;;20.47;5.63;;;9.60;99.90;;;;;;4943864;29;20352;-79
2023/02/02 10:34:15;;;;;;;18.10;4.97;;;9.60;99.90;;;;;;4928521;29;20201;-79
2023/02/02 10:36:56;;;;;;;16.57;4.37;;;9.70;99.90;;;;;;4927667;29;20260;-79
2023/02/02 10:39:36;;;;;;;19.40;4.80;;;9.70;99.90;;;;;;4926900;29;20224;-79
2023/02/02 10:42:11;;;;;;;19.83;4.67;;;9.70;99.90;;;;;;4927557;29;20198;-79
2023/02/02 10:44:45;;;;;;;19.83;4.37;;;9.70;99.90;;;;;;4927458;29;20224;-79
2023/02/02 10:47:19;;;;;;;28.83;6.03;;;9.70;99.90;;;;;;4920665;29;20206;-80
2023/02/02 10:49:46;;;;;;;16.17;5.47;;;9.80;99.90;;;;;;4908666;29;20301;-80
2023/02/02 10:52:17;;;;;;;18.97;4.67;;;9.90;99.90;;;;;;4919339;29;20525;-79
2023/02/02 10:55:05;;;;;;;24.47;4.73;;;9.90;99.90;;;;;;4925435;29;20252;-78
2023/02/02 10:57:50;;;;;;;22.70;5.03;;;10.00;99.90;;;;;;4921600;29;20768;-79
2023/02/02 11:00:23;;;;;;;16.30;3.53;;;10.00;99.90;;;;;;4926815;29;20220;-80
2023/02/02 11:02:51;;;;;;;28.57;5.10;;;10.00;99.90;;;;;;4927223;29;20200;-79
2023/02/02 11:08:14;;;;;;;21.30;4.13;;;9.90;99.90;;;;;;4923989;29;20244;-79
2023/02/02 11:10:44;;;;;;;22.77;5.50;;;9.90;99.90;;;;;;4924397;29;20482;-79
2023/02/02 11:13:17;;;;;;;20.83;4.70;;;9.90;99.90;;;;;;4926352;29;20222;-79
2023/02/02 11:15:44;;;;;;;23.63;5.07;;;9.90;99.90;;;;;;4920920;29;20212;-78
2023/02/02 11:18:25;;;;;;;12.53;3.47;;;9.90;99.90;;;;;;4920058;29;20222;-80
2023/02/02 11:20:52;;;;;;;27.77;4.80;;;9.80;99.90;;;;;;4918885;29;20212;-78
2023/02/02 11:23:21;;;;;;;19.07;4.43;;;9.90;99.90;;;;;;4922770;29;20564;-78
2023/02/02 11:26:00;;;;;;;25.33;4.50;;;9.80;99.90;;;;;;4923987;29;20213;-79
2023/02/02 11:28:30;;;;;;;17.90;3.60;;;9.80;99.90;;;;;;4925318;29;20213;-79
2023/02/02 11:30:58;;;;;;;24.13;4.70;;;9.80;99.90;;;;;;4918695;29;20756;-79
2023/02/02 11:33:29;;;;;;;15.53;4.20;;;9.80;99.90;;;;;;4926617;29;20209;-78
2023/02/02 11:35:58;;;;;;;19.13;4.43;;;9.80;99.90;;;;;;4925517;29;20198;-79
2023/02/02 11:38:26;;;;;;;21.70;5.03;;;9.80;99.90;;;;;;4923450;29;20312;-78
2023/02/02 11:40:59;;;;;;;14.93;3.37;;;9.80;99.90;;;;;;4927139;28;20221;-81
2023/02/02 11:43:30;;;;;;;14.63;3.93;;;9.80;99.90;;;;;;4916964;29;20215;-78
2023/02/02 11:45:59;;;;;;;14.43;3.17;;;9.80;99.90;;;;;;4908965;29;20231;-78
2023/02/02 11:48:29;;;;;;;22.67;3.93;;;9.80;99.90;;;;;;4908158;29;20346;-79
2023/02/02 11:51:01;;;;;;;15.83;3.23;;;9.80;99.90;;;;;;4907600;29;20214;-80
2023/02/02 11:53:31;;;;;;;17.37;3.53;;;9.80;99.90;;;;;;4908103;29;20603;-78
2023/02/02 11:56:02;;;;;;;15.97;3.37;;;9.80;99.90;;;;;;4911964;29;20238;-79
2023/02/02 11:58:42;;;;;;;22.10;3.80;;;9.80;99.90;;;;;;4908550;29;20215;-82
2023/02/02 12:01:23;;;;;;;19.60;3.77;;;9.80;99.90;;;;;;4908649;29;20512;-78
2023/02/02 12:03:50;;;;;;;18.20;3.80;;;9.80;99.90;;;;;;4907797;29;20293;-79
2023/02/02 12:06:19;;;;;;;13.90;4.17;;;9.80;99.90;;;;;;4908168;29;20214;-80
2023/02/02 12:08:47;;;;;;;20.97;4.40;;;9.80;99.90;;;;;;4906849;29;20530;-79
2023/02/02 12:11:29;;;;;;;20.43;3.50;;;9.80;99.90;;;;;;4906958;29;20213;-80
2023/02/02 12:14:10;;;;;;;19.00;4.20;;;9.80;99.90;;;;;;4907212;29;20252;-80
2023/02/02 12:16:52;;;;;;;21.37;3.67;;;9.80;99.90;;;;;;4909583;29;20199;-81
2023/02/02 12:19:53;;;;;;;14.40;3.33;;;9.70;99.90;;;;;;4908342;29;20274;-81
2023/02/02 12:22:31;;;;;;;19.03;4.17;;;9.70;99.90;;;;;;4907804;29;20205;-83
2023/02/02 12:25:06;;;;;;;16.80;3.23;;;9.70;99.90;;;;;;4913920;29;20207;-79
2023/02/02 12:27:43;;;;;;;22.17;4.73;;;9.70;99.90;;;;;;4907942;29;20216;-79
2023/02/02 12:30:32;;;;;;;16.33;3.73;;;9.70;99.90;;;;;;4909450;29;20217;-80
2023/02/02 12:33:13;;;;;;;15.63;4.30;;;9.70;99.90;;;;;;4909624;29;20240;-80
2023/02/02 12:35:59;;;;;;;17.90;3.97;;;9.60;99.90;;;;;;4909677;29;20525;-80
2023/02/02 12:38:42;;;;;;;21.93;4.10;;;9.60;99.90;;;;;;4912143;29;20219;-83
2023/02/02 12:41:24;;;;;;;15.23;3.43;;;9.60;99.90;;;;;;4912415;29;20195;-84
2023/02/02 12:44:00;;;;;;;21.73;5.87;;;9.60;99.90;;;;;;4912526;29;20207;-84
2023/02/02 12:46:40;;;;;;;12.83;3.77;;;9.60;99.90;;;;;;4912038;29;20216;-84
2023/02/02 12:49:32;;;;;;;18.37;3.13;;;9.60;99.90;;;;;;4913585;29;20281;-87
2023/02/02 12:52:16;;;;;;;23.43;4.90;;;9.50;99.90;;;;;;4909406;29;20206;-81
2023/02/02 12:54:59;;;;;;;23.07;4.13;;;9.50;99.90;;;;;;4911035;29;20241;-83
2023/02/02 12:57:40;;;;;;;13.43;3.67;;;9.50;99.90;;;;;;4910774;29;20278;-85
2023/02/02 13:00:38;;;;;;;23.43;4.33;;;9.50;99.90;;;;;;4910029;29;20219;-87
2023/02/02 13:03:32;;;;;;;19.20;4.40;;;9.50;99.90;;;;;;4924581;28;20214;-84
2023/02/02 13:06:11;;;;;;;19.57;3.60;;;9.40;99.90;;;;;;4930757;29;20205;-83
2023/02/02 13:08:45;;;;;;;16.07;4.30;;;9.50;99.90;;;;;;4911699;29;20275;-84
2023/02/02 13:11:29;;;;;;;19.23;5.07;;;9.50;99.90;;;;;;4912214;29;20198;-83
2023/02/02 13:14:05;;;;;;;21.93;4.23;;;9.50;99.90;;;;;;4913821;29;20202;-83
2023/02/02 13:16:35;;;;;;;13.43;3.37;;;9.40;99.90;;;;;;4930053;29;20924;-82